Current Weather

Ali Al Salem Ab

Ali Al Salem Ab, Kuwait (OKAS)

Report from: Tuesday, August 16, 2022 6:55 AM UTC
Current time: Tuesday, August 16, 2022 7:32 AM UTC

Nearby weather
Weather history
Weather forecast

Present weatherBLDU
Temperature41.0°C (105.8°F)
Heat index38.3°C (101.0°F)
Dew point5.0°C (41.0°F)
Winds 18 kts (9.3 m/s, 20.7 mph) Northwest (320°)
Visibility5.6 mi. (9 km)
Clouds Sky clear
Altimeter29.52 in.Hg (1000 mB)
Relative humidity11 %
Density altitude3,500 ft. (1,067 m)
Sea-level pressure99.9 kPa (999 mB, 29.49 in.Hg)
Remarks Automated weather observing station with precipitation discriminator
Flight conditions Visual Meteorological Conditions
Raw dataOKAS 160655Z 32018KT 9000 BLDU CLR 41/05 A2952 RMK AO2A SLP985
An error has occurred. This application may no longer respond until reloaded. Reload 🗙